Time;durP1;ratioP1;P1;durP2;ratioP2;P2;SDS_P1;SDS_P2;PMS_P1;PMS_P2;Temp;Humidity;BMP_temperature;BMP_pressure;BME280_temperature;BME280_humidity;BME280_pressure;Samples;Min_cycle;Max_cycle;Signal;HPM_P1;HPM_P2
2023/04/15 00:01:28;;;;;;;13.35;5.85;;;;;;;7.98;70.88;100626.78;5043365;28;20500;-65
2023/04/15 00:03:54;;;;;;;11.80;5.40;;;;;;;7.99;70.22;100632.91;5043387;28;20031;-65
2023/04/15 00:06:21;;;;;;;12.10;5.93;;;;;;;7.94;70.60;100620.97;5041797;28;20067;-65
2023/04/15 00:08:47;;;;;;;10.80;5.63;;;;;;;7.97;70.61;100634.84;5041963;28;20090;-65
2023/04/15 00:11:13;;;;;;;12.90;5.90;;;;;;;7.97;70.57;100627.78;5040658;28;20142;-65
2023/04/15 00:13:39;;;;;;;15.90;6.32;;;;;;;7.93;70.52;100621.97;5045488;28;20033;-65
2023/04/15 00:16:07;;;;;;;12.80;6.30;;;;;;;7.89;70.23;100623.25;5041114;28;20120;-65
2023/04/15 00:18:32;;;;;;;11.18;6.45;;;;;;;7.93;69.97;100624.59;5044125;28;20068;-65
2023/04/15 00:20:58;;;;;;;14.13;6.25;;;;;;;7.90;70.58;100624.09;5042178;28;20064;-65
2023/04/15 00:23:24;;;;;;;12.48;6.47;;;;;;;7.89;70.33;100625.06;5037259;28;20124;-65
2023/04/15 00:25:49;;;;;;;12.20;6.45;;;;;;;7.85;70.38;100635.06;5046571;28;20037;-65
2023/04/15 00:28:15;;;;;;;11.57;6.78;;;;;;;7.87;70.45;100629.66;5044860;28;20078;-65
2023/04/15 00:30:41;;;;;;;13.05;7.15;;;;;;;7.83;70.61;100618.56;5045017;28;20033;-65
2023/04/15 00:33:06;;;;;;;15.00;6.60;;;;;;;7.84;70.98;100622.84;5045284;28;20384;-65
2023/04/15 00:35:32;;;;;;;17.88;6.85;;;;;;;7.79;70.63;100620.66;5044178;28;20056;-65
2023/04/15 00:37:58;;;;;;;14.30;6.70;;;;;;;7.78;71.56;100623.44;5039046;28;20041;-64
2023/04/15 00:40:25;;;;;;;16.15;6.80;;;;;;;7.76;71.30;100622.78;5046393;28;20053;-65
2023/04/15 00:42:51;;;;;;;14.07;6.85;;;;;;;7.64;71.83;100622.97;5045229;28;20087;-65
2023/04/15 00:45:16;;;;;;;13.10;7.00;;;;;;;7.65;71.91;100619.34;5044239;28;20051;-65
2023/04/15 00:47:42;;;;;;;12.07;6.43;;;;;;;7.65;72.05;100623.81;5042641;28;20041;-65
2023/04/15 00:50:09;;;;;;;14.57;6.95;;;;;;;7.60;72.30;100621.59;5043664;28;20048;-65
2023/04/15 00:52:35;;;;;;;14.07;6.93;;;;;;;7.64;72.40;100620.34;5044814;28;20067;-65
2023/04/15 00:55:01;;;;;;;13.27;7.00;;;;;;;7.53;72.43;100623.16;5044615;28;20440;-65
2023/04/15 00:57:27;;;;;;;16.60;6.82;;;;;;;7.51;72.83;100625.13;5042949;28;20043;-65
2023/04/15 00:59:54;;;;;;;14.48;6.90;;;;;;;7.44;72.67;100622.25;5043327;28;20484;-65
2023/04/15 01:02:20;;;;;;;14.18;7.25;;;;;;;7.44;72.88;100618.78;5040502;28;20040;-65
2023/04/15 01:04:46;;;;;;;13.18;7.10;;;;;;;7.33;72.94;100623.28;5044720;28;20060;-64
2023/04/15 01:07:11;;;;;;;15.43;7.35;;;;;;;7.33;72.83;100611.88;5044585;28;20166;-65
2023/04/15 01:09:36;;;;;;;12.70;7.10;;;;;;;7.33;72.97;100620.63;5045360;28;20064;-65
2023/04/15 01:12:03;;;;;;;13.60;6.88;;;;;;;7.28;72.52;100614.94;5044786;28;20488;-65
2023/04/15 01:14:29;;;;;;;16.50;7.50;;;;;;;7.21;73.78;100619.16;5044304;28;20547;-65
2023/04/15 01:16:55;;;;;;;15.35;7.60;;;;;;;7.22;73.44;100620.81;5044948;28;20143;-65
2023/04/15 01:19:20;;;;;;;14.73;7.72;;;;;;;7.09;73.59;100621.97;5044562;28;20652;-65
2023/04/15 01:21:46;;;;;;;15.70;7.30;;;;;;;7.12;74.22;100631.41;5043936;28;20082;-65
2023/04/15 01:24:15;;;;;;;16.73;7.60;;;;;;;7.06;74.01;100627.50;5044082;28;20032;-65
2023/04/15 01:26:40;;;;;;;16.45;7.63;;;;;;;7.06;74.01;100624.06;5042859;28;20583;-65
2023/04/15 01:29:05;;;;;;;12.98;7.30;;;;;;;7.06;74.73;100622.25;5041582;28;20029;-65
2023/04/15 01:31:31;;;;;;;17.15;7.82;;;;;;;7.01;74.42;100624.50;5044054;28;20028;-65
2023/04/15 01:33:57;;;;;;;13.88;7.40;;;;;;;7.00;74.06;100622.81;5044325;28;20045;-65
2023/04/15 01:36:22;;;;;;;11.80;7.25;;;;;;;6.97;74.43;100628.38;5042340;28;20029;-65
2023/04/15 01:38:47;;;;;;;17.52;7.43;;;;;;;6.97;75.13;100628.38;5043042;28;20025;-65
2023/04/15 01:41:13;;;;;;;14.02;7.38;;;;;;;6.92;74.78;100623.56;5043957;28;20033;-65
2023/04/15 01:43:38;;;;;;;14.80;7.80;;;;;;;6.83;75.48;100625.25;5044539;28;20817;-65
2023/04/15 01:46:05;;;;;;;13.98;7.50;;;;;;;6.86;75.09;100627.56;5042312;28;20041;-65
2023/04/15 01:48:31;;;;;;;24.02;7.65;;;;;;;6.81;74.88;100624.53;5040601;28;20116;-65
2023/04/15 01:50:57;;;;;;;16.70;8.07;;;;;;;6.80;75.51;100622.88;5044998;28;20036;-65
2023/04/15 01:53:24;;;;;;;14.35;7.70;;;;;;;6.78;75.17;100624.81;5042819;28;20444;-65
2023/04/15 01:55:49;;;;;;;14.20;8.10;;;;;;;6.76;75.70;100616.22;5042368;28;20034;-65
2023/04/15 01:58:15;;;;;;;16.00;8.10;;;;;;;6.75;75.36;100621.66;5040785;28;20039;-65
2023/04/15 02:00:40;;;;;;;15.25;8.25;;;;;;;6.76;75.52;100616.22;5038201;28;20032;-64
2023/04/15 02:03:06;;;;;;;18.30;8.60;;;;;;;6.72;75.30;100614.84;5040881;28;20110;-65
2023/04/15 02:05:31;;;;;;;20.08;8.77;;;;;;;6.70;74.82;100615.00;5038272;28;20032;-65
2023/04/15 02:07:58;;;;;;;16.25;7.95;;;;;;;6.70;75.48;100619.41;5043187;28;20267;-65
2023/04/15 02:10:23;;;;;;;14.98;8.52;;;;;;;6.66;75.88;100615.41;5039775;28;20825;-65
2023/04/15 02:12:48;;;;;;;15.10;8.20;;;;;;;6.58;75.37;100619.56;5041475;28;20036;-65
2023/04/15 02:15:14;;;;;;;15.63;8.25;;;;;;;6.69;76.23;100625.66;5039850;28;20506;-65
2023/04/15 02:17:39;;;;;;;15.00;8.68;;;;;;;6.67;76.08;100627.63;5037504;28;20086;-65
2023/04/15 02:20:05;;;;;;;15.05;8.63;;;;;;;6.62;76.09;100629.84;5040956;28;20176;-65
2023/04/15 02:22:31;;;;;;;15.02;8.40;;;;;;;6.62;76.94;100629.84;5038655;28;20036;-65
2023/04/15 02:24:56;;;;;;;15.05;8.55;;;;;;;6.57;76.61;100633.72;5035364;28;20064;-65
2023/04/15 02:27:21;;;;;;;16.63;9.02;;;;;;;6.45;76.46;100634.84;5035581;28;20048;-64
2023/04/15 02:29:49;;;;;;;18.25;9.38;;;;;;;6.46;77.29;100642.59;5040719;28;21235;-65
2023/04/15 02:32:15;;;;;;;16.75;9.00;;;;;;;6.40;77.72;100647.59;5038183;28;20083;-65
2023/04/15 02:34:41;;;;;;;16.55;9.02;;;;;;;6.38;77.05;100639.00;5038403;28;20028;-65
2023/04/15 02:37:11;;;;;;;13.95;9.23;;;;;;;6.37;77.04;100648.69;5034279;28;20039;-65
2023/04/15 02:39:36;;;;;;;16.15;9.18;;;;;;;6.29;77.29;100646.78;5039818;28;20029;-65
2023/04/15 02:42:02;;;;;;;16.88;9.82;;;;;;;6.23;77.53;100646.47;5039161;28;20051;-65
2023/04/15 02:44:28;;;;;;;17.33;9.98;;;;;;;6.25;78.15;100650.66;5043415;28;20036;-65
2023/04/15 02:46:53;;;;;;;17.52;9.85;;;;;;;6.25;77.93;100650.66;5039088;28;20049;-65
2023/04/15 02:49:22;;;;;;;16.85;9.40;;;;;;;6.25;77.75;100649.81;5036320;28;20560;-64
2023/04/15 02:51:48;;;;;;;15.45;9.48;;;;;;;6.21;78.45;100649.25;5040252;28;20086;-65
2023/04/15 02:54:15;;;;;;;15.63;10.05;;;;;;;6.27;77.86;100653.97;5037008;28;20049;-65
2023/04/15 02:56:40;;;;;;;15.45;9.50;;;;;;;6.22;78.58;100656.16;5038610;28;20028;-65
2023/04/15 02:59:06;;;;;;;14.90;9.43;;;;;;;6.21;78.03;100653.69;5039547;28;20047;-65
2023/04/15 03:01:31;;;;;;;14.68;9.40;;;;;;;6.11;78.20;100657.13;5041695;28;20087;-65
2023/04/15 03:03:56;;;;;;;16.73;9.52;;;;;;;6.19;78.72;100664.38;5036402;28;20087;-65
2023/04/15 03:06:23;;;;;;;14.90;9.40;;;;;;;6.12;78.27;100650.91;5038369;28;20090;-65
2023/04/15 03:08:49;;;;;;;14.40;9.10;;;;;;;6.16;78.78;100665.47;5041838;28;20039;-64
2023/04/15 03:11:15;;;;;;;17.15;9.93;;;;;;;6.09;79.28;100656.47;5040083;28;20029;-65
2023/04/15 03:13:42;;;;;;;15.93;9.40;;;;;;;6.08;79.50;100660.06;5037023;28;20064;-65
2023/04/15 03:16:07;;;;;;;18.75;9.45;;;;;;;6.03;79.55;100657.81;5036939;28;20043;-64
2023/04/15 03:18:33;;;;;;;15.63;9.25;;;;;;;6.02;79.42;100657.94;5042265;28;20025;-65
2023/04/15 03:20:58;;;;;;;16.15;9.45;;;;;;;5.99;79.92;100666.94;5041161;28;20029;-65
2023/04/15 03:23:24;;;;;;;15.40;10.05;;;;;;;6.02;79.93;100669.31;5041310;28;20043;-64
2023/04/15 03:25:49;;;;;;;15.63;9.80;;;;;;;5.99;79.88;100668.72;5040765;28;20560;-65
2023/04/15 03:28:15;;;;;;;15.65;10.55;;;;;;;5.95;80.09;100669.97;5038656;28;20028;-65
2023/04/15 03:30:40;;;;;;;16.02;10.00;;;;;;;5.99;79.12;100677.47;5039328;28;20073;-65
2023/04/15 03:33:06;;;;;;;16.35;10.20;;;;;;;5.96;80.15;100680.34;5040707;28;20049;-65
2023/04/15 03:35:31;;;;;;;16.20;9.80;;;;;;;5.95;79.86;100681.34;5043391;28;20108;-64
2023/04/15 03:37:57;;;;;;;18.23;10.57;;;;;;;5.89;79.63;100681.88;5041293;28;20048;-64
2023/04/15 03:40:22;;;;;;;16.30;10.07;;;;;;;5.89;80.46;100687.97;5043844;28;20033;-65
2023/04/15 03:42:47;;;;;;;18.35;10.65;;;;;;;5.81;80.00;100679.91;5040896;28;20698;-65
2023/04/15 03:45:13;;;;;;;16.77;10.57;;;;;;;5.79;80.46;100690.56;5041472;28;20064;-65
2023/04/15 03:47:38;;;;;;;16.80;10.43;;;;;;;5.73;80.31;100688.47;5042831;28;20472;-65
2023/04/15 03:50:04;;;;;;;16.17;10.90;;;;;;;5.78;80.17;100702.06;5041964;28;20512;-65
2023/04/15 03:52:29;;;;;;;18.50;10.57;;;;;;;5.74;80.63;100705.09;5045908;28;20050;-65
2023/04/15 03:54:55;;;;;;;16.23;10.23;;;;;;;5.73;80.98;100703.44;5045556;28;20037;-65
2023/04/15 03:57:20;;;;;;;16.75;10.75;;;;;;;5.70;81.30;100709.78;5046968;28;20040;-65
2023/04/15 03:59:45;;;;;;;16.67;10.80;;;;;;;5.62;80.91;100706.97;5044968;28;20110;-65
2023/04/15 04:02:11;;;;;;;18.58;11.02;;;;;;;5.62;81.42;100713.06;5041797;28;20039;-65
2023/04/15 04:04:36;;;;;;;18.67;10.82;;;;;;;5.52;82.04;100707.78;5042186;28;20037;-65
2023/04/15 04:07:01;;;;;;;16.73;10.93;;;;;;;5.58;81.81;100710.84;5042883;28;20111;-65
2023/04/15 04:09:27;;;;;;;17.10;10.70;;;;;;;5.57;81.50;100714.44;5043433;28;20037;-64
2023/04/15 04:11:52;;;;;;;16.25;11.07;;;;;;;5.52;81.96;100723.56;5043258;28;20057;-65
2023/04/15 04:14:17;;;;;;;17.08;11.32;;;;;;;5.46;82.23;100723.25;5045774;28;20059;-64
2023/04/15 04:16:43;;;;;;;16.17;11.10;;;;;;;5.45;82.06;100730.31;5044627;28;20510;-65
2023/04/15 04:19:08;;;;;;;17.17;11.63;;;;;;;5.44;82.23;100730.44;5045979;28;20041;-65
2023/04/15 04:21:35;;;;;;;19.60;11.55;;;;;;;5.40;82.97;100737.75;5042117;28;20680;-64
2023/04/15 04:24:01;;;;;;;15.70;11.07;;;;;;;5.38;83.44;100744.94;5042936;28;20095;-65
2023/04/15 04:26:26;;;;;;;16.80;10.93;;;;;;;5.39;83.19;100744.78;5043769;28;20595;-65
2023/04/15 04:28:51;;;;;;;19.08;11.90;;;;;;;5.40;83.25;100748.28;5042508;28;20800;-65
2023/04/15 04:31:17;;;;;;;16.85;11.30;;;;;;;5.33;83.18;100747.13;5042860;28;20519;-65
2023/04/15 04:33:43;;;;;;;14.93;11.15;;;;;;;5.32;83.42;100753.38;5045745;28;20040;-65
2023/04/15 04:36:08;;;;;;;19.77;11.75;;;;;;;5.33;83.67;100761.09;5043012;28;20481;-65
2023/04/15 04:38:33;;;;;;;19.25;11.82;;;;;;;5.32;84.22;100758.63;5044440;28;20113;-65
2023/04/15 04:40:59;;;;;;;17.40;11.32;;;;;;;5.29;84.15;100761.50;5042346;28;20052;-65
2023/04/15 04:43:24;;;;;;;17.98;11.63;;;;;;;5.30;84.98;100765.78;5039824;28;20025;-65
2023/04/15 04:45:50;;;;;;;17.63;11.82;;;;;;;5.24;84.77;100770.59;5042950;28;20171;-65
2023/04/15 04:48:15;;;;;;;17.70;11.60;;;;;;;5.31;84.77;100778.81;5039974;28;20067;-65
2023/04/15 04:50:41;;;;;;;17.48;11.80;;;;;;;5.27;85.33;100771.31;5037455;28;20507;-65
2023/04/15 04:53:06;;;;;;;18.65;11.60;;;;;;;5.28;84.95;100778.22;5038209;28;20039;-65
2023/04/15 04:55:32;;;;;;;16.45;11.90;;;;;;;5.25;85.99;100781.94;5041251;28;20033;-65
2023/04/15 04:57:57;;;;;;;17.77;12.25;;;;;;;5.25;86.16;100780.13;5040760;28;20029;-64
2023/04/15 05:00:22;;;;;;;18.30;12.27;;;;;;;5.27;86.02;100781.84;5041848;28;20033;-65
2023/04/15 05:02:47;;;;;;;18.70;12.70;;;;;;;5.24;86.10;100782.91;5037742;28;20024;-65
2023/04/15 05:05:13;;;;;;;19.98;12.23;;;;;;;5.23;86.77;100786.50;5045540;28;20435;-65
2023/04/15 05:07:38;;;;;;;17.20;11.75;;;;;;;5.24;86.37;100794.25;5041956;28;20033;-64
2023/04/15 05:10:05;;;;;;;18.08;11.98;;;;;;;5.23;87.10;100797.84;5044098;28;20029;-65
2023/04/15 05:12:31;;;;;;;19.70;12.23;;;;;;;5.23;86.91;100797.84;5042370;28;20083;-65
2023/04/15 05:14:56;;;;;;;17.33;12.10;;;;;;;5.25;87.09;100805.63;5041999;28;20036;-65
2023/04/15 05:17:21;;;;;;;19.00;12.18;;;;;;;5.27;87.58;100814.19;5042041;28;20656;-65
2023/04/15 05:19:47;;;;;;;18.90;12.75;;;;;;;5.30;87.21;100818.38;5037876;28;20973;-65
2023/04/15 05:22:12;;;;;;;19.50;12.25;;;;;;;5.33;87.31;100818.13;5043776;28;20041;-65
2023/04/15 05:24:37;;;;;;;17.00;11.98;;;;;;;5.33;87.51;100828.66;5042315;28;20041;-65
2023/04/15 05:27:03;;;;;;;19.10;12.60;;;;;;;5.39;87.00;100828.13;5037120;28;20576;-65
2023/04/15 05:29:28;;;;;;;20.73;12.65;;;;;;;5.37;87.80;100824.78;5042659;28;20025;-64
2023/04/15 05:31:54;;;;;;;17.58;12.10;;;;;;;5.32;87.70;100833.06;5039884;28;20038;-65
2023/04/15 05:34:20;;;;;;;19.67;12.25;;;;;;;5.38;87.67;100837.00;5042997;28;20087;-65
2023/04/15 05:36:45;;;;;;;20.02;12.65;;;;;;;5.39;88.11;100846.56;5042892;28;20033;-65
2023/04/15 05:39:10;;;;;;;19.27;13.40;;;;;;;5.35;88.27;100848.59;5045053;28;20105;-65
2023/04/15 05:41:36;;;;;;;19.17;12.85;;;;;;;5.40;87.73;100850.84;5041814;28;20037;-66
2023/04/15 05:44:02;;;;;;;20.00;12.80;;;;;;;5.38;87.83;100858.84;5044164;28;20029;-65
2023/04/15 05:46:27;;;;;;;20.42;13.07;;;;;;;5.38;88.31;100858.84;5041677;28;20550;-65
2023/04/15 05:48:52;;;;;;;20.67;12.95;;;;;;;5.37;88.66;100865.06;5042840;28;20583;-65
2023/04/15 05:51:18;;;;;;;18.77;13.15;;;;;;;5.37;88.86;100870.34;5045568;28;20579;-65
2023/04/15 05:53:44;;;;;;;19.83;12.60;;;;;;;5.40;88.54;100877.13;5043778;28;20490;-65
2023/04/15 05:56:10;;;;;;;18.13;13.27;;;;;;;5.40;88.64;100871.88;5040602;28;20060;-65
2023/04/15 05:58:35;;;;;;;18.77;13.05;;;;;;;5.44;88.30;100878.56;5039247;28;20918;-65
2023/04/15 06:01:02;;;;;;;19.33;13.07;;;;;;;5.46;88.94;100881.91;5033345;28;20432;-65
2023/04/15 06:03:27;;;;;;;22.10;13.10;;;;;;;5.48;88.71;100887.03;5033454;28;20037;-65
2023/04/15 06:05:53;;;;;;;20.27;13.63;;;;;;;5.49;88.58;100891.31;5041034;28;20384;-65
2023/04/15 06:08:18;;;;;;;19.75;13.43;;;;;;;5.51;89.82;100895.50;5042631;28;20035;-71
2023/04/15 06:10:43;;;;;;;19.05;13.45;;;;;;;5.58;89.09;100900.25;5043468;28;20479;-68
2023/04/15 06:13:09;;;;;;;22.45;12.77;;;;;;;5.63;89.60;100898.91;5040133;28;20029;-64
2023/04/15 06:15:34;;;;;;;21.77;13.57;;;;;;;5.70;89.41;100906.28;5042309;28;20029;-64
2023/04/15 06:18:00;;;;;;;17.95;12.98;;;;;;;5.74;88.72;100905.91;5044257;28;20094;-64
2023/04/15 06:20:25;;;;;;;18.00;13.02;;;;;;;5.83;89.25;100911.38;5044469;28;20055;-64
2023/04/15 06:22:51;;;;;;;20.42;13.18;;;;;;;5.89;89.01;100919.59;5041926;28;20036;-64
2023/04/15 06:25:16;;;;;;;18.38;13.20;;;;;;;5.94;88.18;100921.84;5035901;28;20029;-64
2023/04/15 06:27:42;;;;;;;18.77;13.43;;;;;;;5.99;88.81;100917.00;5044266;28;20036;-64
2023/04/15 06:30:07;;;;;;;17.70;13.15;;;;;;;6.11;88.00;100923.06;5042138;28;20463;-64
2023/04/15 06:32:33;;;;;;;19.52;13.77;;;;;;;6.17;88.53;100927.81;5042092;28;20696;-64
2023/04/15 06:34:58;;;;;;;19.05;13.35;;;;;;;6.25;87.63;100935.06;5035445;28;20033;-64
2023/04/15 06:37:24;;;;;;;19.25;12.60;;;;;;;6.29;87.63;100941.75;5044405;28;20044;-64
2023/04/15 06:39:49;;;;;;;18.95;13.10;;;;;;;6.36;87.41;100949.94;5040016;28;20029;-64
2023/04/15 06:42:15;;;;;;;19.65;13.05;;;;;;;6.46;87.54;100952.63;5043589;28;20037;-64
2023/04/15 06:44:40;;;;;;;19.08;13.35;;;;;;;6.52;87.63;100951.28;5044590;28;20044;-64
2023/04/15 06:47:05;;;;;;;18.88;13.27;;;;;;;6.59;87.11;100958.53;5044095;28;20064;-64
2023/04/15 06:49:33;;;;;;;17.90;12.00;;;;;;;6.62;86.88;100962.69;5043478;28;20041;-64
2023/04/15 06:51:59;;;;;;;17.25;11.77;;;;;;;6.65;86.47;100961.59;5043862;28;20029;-64
2023/04/15 06:54:24;;;;;;;18.27;12.45;;;;;;;6.71;87.68;100966.34;5044155;28;20068;-64
2023/04/15 06:56:51;;;;;;;18.02;11.77;;;;;;;6.80;87.24;100970.78;5044089;28;20061;-71
2023/04/15 06:59:16;;;;;;;18.73;11.80;;;;;;;6.86;86.70;100975.53;5040895;28;20078;-64
2023/04/15 07:01:41;;;;;;;16.83;11.18;;;;;;;6.91;86.21;100976.94;5041674;28;20041;-64
2023/04/15 07:04:07;;;;;;;18.02;12.35;;;;;;;6.98;86.10;100983.34;5035651;28;20052;-65
2023/04/15 07:06:32;;;;;;;17.63;12.02;;;;;;;7.02;86.53;100983.91;5041847;28;20033;-65
2023/04/15 07:08:58;;;;;;;18.45;11.82;;;;;;;7.07;86.72;100987.81;5043423;28;20043;-64
2023/04/15 07:11:25;;;;;;;15.73;11.50;;;;;;;7.18;86.01;100983.38;5038863;28;20489;-64
2023/04/15 07:13:50;;;;;;;17.23;12.10;;;;;;;7.23;86.43;100997.84;5043769;28;20115;-64
2023/04/15 07:16:15;;;;;;;17.60;11.65;;;;;;;7.23;86.64;100989.94;5043164;28;20588;-64
2023/04/15 07:18:41;;;;;;;17.23;12.18;;;;;;;7.37;86.32;101003.69;5044069;28;20040;-64
2023/04/15 07:21:06;;;;;;;18.10;12.18;;;;;;;7.48;85.88;101015.94;5030897;28;20043;-64
2023/04/15 07:23:31;;;;;;;17.00;12.20;;;;;;;7.55;86.37;101009.13;5041924;28;20202;-64
2023/04/15 07:25:57;;;;;;;17.85;12.50;;;;;;;7.61;86.05;101016.50;5046275;28;20417;-63
2023/04/15 07:28:22;;;;;;;17.63;11.90;;;;;;;7.71;86.80;101026.25;5047619;28;20056;-64
2023/04/15 07:30:47;;;;;;;18.55;12.95;;;;;;;7.80;86.08;101020.16;5047137;28;20076;-64
2023/04/15 07:33:13;;;;;;;19.23;12.68;;;;;;;7.91;86.68;101025.25;5047167;28;20528;-64
2023/04/15 07:35:38;;;;;;;19.90;13.30;;;;;;;8.02;85.26;101023.44;5046115;28;20048;-64
2023/04/15 07:38:03;;;;;;;18.67;13.40;;;;;;;8.10;85.27;101028.88;5045489;28;20593;-64
2023/04/15 07:40:29;;;;;;;16.67;12.43;;;;;;;8.18;84.05;101033.44;5044146;28;20067;-64
2023/04/15 07:42:57;;;;;;;17.35;12.63;;;;;;;8.24;83.12;101037.34;5045757;28;20037;-64
2023/04/15 07:45:22;;;;;;;18.08;12.63;;;;;;;8.31;83.52;101043.72;5046626;28;20118;-65
2023/04/15 07:47:49;;;;;;;16.35;11.93;;;;;;;8.43;82.95;101039.94;5047186;28;20095;-64
2023/04/15 07:50:16;;;;;;;17.10;11.55;;;;;;;8.56;83.66;101052.06;5037638;28;20040;-64
2023/04/15 07:52:41;;;;;;;15.77;11.05;;;;;;;8.61;81.31;101049.81;5044429;28;20495;-65
2023/04/15 07:55:08;;;;;;;14.25;10.40;;;;;;;8.70;80.90;101048.97;5047565;28;20036;-64
2023/04/15 07:57:35;;;;;;;14.00;9.50;;;;;;;8.74;78.35;101044.22;5047339;28;20072;-64
2023/04/15 08:00:01;;;;;;;15.13;10.30;;;;;;;8.84;78.76;101054.75;5045539;28;20790;-64
2023/04/15 08:02:27;;;;;;;13.65;9.73;;;;;;;8.88;78.19;101056.13;5038625;28;20583;-65
2023/04/15 08:04:52;;;;;;;16.10;10.38;;;;;;;8.88;79.09;101056.97;5045840;28;20029;-64
2023/04/15 08:07:18;;;;;;;14.75;9.80;;;;;;;8.98;78.53;101064.84;5044973;28;20446;-64
2023/04/15 08:09:43;;;;;;;15.63;10.02;;;;;;;9.05;78.47;101072.22;5046941;28;20626;-65
2023/04/15 08:12:12;;;;;;;14.13;8.60;;;;;;;9.11;77.02;101068.97;5040667;28;20037;-64
2023/04/15 08:14:37;;;;;;;12.77;8.90;;;;;;;9.14;77.53;101076.66;5045688;28;20040;-64
2023/04/15 08:17:03;;;;;;;14.13;9.45;;;;;;;9.16;77.81;101079.97;5046217;28;20087;-63
2023/04/15 08:19:28;;;;;;;12.82;9.32;;;;;;;9.26;78.97;101083.41;5045864;28;20120;-64
2023/04/15 08:21:54;;;;;;;13.73;9.27;;;;;;;9.34;78.00;101092.41;5046024;28;20031;-65
2023/04/15 08:24:21;;;;;;;14.93;10.15;;;;;;;9.43;77.99;101099.50;5046766;28;20123;-64
2023/04/15 08:26:46;;;;;;;15.60;9.98;;;;;;;9.50;78.02;101102.38;5043331;28;20033;-65
2023/04/15 08:29:11;;;;;;;13.82;10.00;;;;;;;9.63;77.35;101102.84;5045219;28;20040;-64
2023/04/15 08:31:37;;;;;;;15.55;9.50;;;;;;;9.66;77.01;101107.00;5046244;28;20041;-64
2023/04/15 08:34:02;;;;;;;15.05;9.68;;;;;;;9.73;74.59;101108.09;5041978;28;20041;-65
2023/04/15 08:36:28;;;;;;;15.20;9.27;;;;;;;9.77;75.55;101114.75;5036783;28;20045;-64
2023/04/15 08:38:53;;;;;;;16.77;9.27;;;;;;;9.82;74.71;101112.47;5042739;28;20052;-64
2023/04/15 08:41:24;;;;;;;13.75;8.50;;;;;;;9.92;74.42;101115.06;5046765;28;20041;-65
2023/04/15 08:44:03;;;;;;;12.88;8.75;;;;;;;9.91;73.82;101120.50;5044802;28;20032;-64
2023/04/15 08:46:33;;;;;;;13.73;7.32;;;;;;;10.05;71.07;101127.94;5045455;28;20081;-64
2023/04/15 08:49:02;;;;;;;10.07;6.90;;;;;;;10.08;70.64;101135.56;5046218;28;20047;-65
2023/04/15 08:51:27;;;;;;;11.00;7.00;;;;;;;10.09;70.57;101134.63;5045108;28;20063;-64
2023/04/15 08:53:53;;;;;;;11.27;7.00;;;;;;;10.18;70.24;101143.47;5043948;28;20064;-73
2023/04/15 08:56:25;;;;;;;8.00;6.15;;;;;;;10.23;69.95;101150.97;5045621;28;20025;-73
2023/04/15 08:58:51;;;;;;;12.17;7.03;;;;;;;10.28;70.37;101151.34;5042732;28;20029;-72
2023/04/15 09:01:17;;;;;;;9.88;6.72;;;;;;;10.38;70.15;101158.38;5043582;28;20568;-72
2023/04/15 09:03:43;;;;;;;10.60;6.07;;;;;;;10.53;68.37;101159.53;5046256;28;20043;-72
2023/04/15 09:06:08;;;;;;;11.95;5.65;;;;;;;10.60;66.69;101160.59;5045173;28;20056;-73
2023/04/15 09:08:34;;;;;;;10.32;5.60;;;;;;;10.70;66.89;101175.59;5041488;28;20040;-65
2023/04/15 09:11:01;;;;;;;7.82;5.18;;;;;;;10.72;63.23;101181.56;5042589;28;20033;-64
2023/04/15 09:13:26;;;;;;;7.68;5.60;;;;;;;10.74;63.69;101183.09;5044241;28;20106;-64
2023/04/15 09:15:52;;;;;;;9.40;5.70;;;;;;;10.74;64.72;101190.19;5045947;28;20487;-64
2023/04/15 09:18:31;;;;;;;10.30;5.97;;;;;;;10.75;62.87;101183.91;5045713;28;20031;-63
2023/04/15 09:21:07;;;;;;;8.63;5.82;;;;;;;10.52;63.56;101180.91;5045294;28;20036;-64
2023/04/15 09:23:34;;;;;;;9.73;6.40;;;;;;;10.63;65.26;101199.22;5045078;28;20145;-64
2023/04/15 09:26:01;;;;;;;10.27;5.85;;;;;;;10.55;63.00;101205.28;5044950;28;20024;-63
2023/04/15 09:28:27;;;;;;;9.50;6.03;;;;;;;10.52;63.16;101218.88;5044309;28;20063;-64
2023/04/15 09:31:00;;;;;;;11.05;6.47;;;;;;;10.60;66.33;101213.63;5041641;28;20041;-63
2023/04/15 09:33:27;;;;;;;10.82;6.75;;;;;;;10.65;65.01;101222.97;5036042;28;20115;-64
2023/04/15 09:36:04;;;;;;;8.52;5.38;;;;;;;10.70;63.77;101220.69;5040720;28;20036;-63
2023/04/15 09:38:30;;;;;;;7.78;5.18;;;;;;;10.81;62.80;101212.47;5037021;28;20094;-64
2023/04/15 09:40:56;;;;;;;7.53;5.25;;;;;;;10.85;62.74;101229.75;5043904;28;20040;-64
2023/04/15 09:43:21;;;;;;;10.43;5.63;;;;;;;10.89;63.71;101223.16;5048099;28;20070;-64
2023/04/15 09:45:56;;;;;;;10.90;5.80;;;;;;;10.98;63.27;101217.91;5045569;28;20041;-64
2023/04/15 09:48:25;;;;;;;8.93;6.35;;;;;;;11.05;63.95;101228.75;5043742;28;20025;-64
2023/04/15 09:50:52;;;;;;;4.78;4.10;;;;;;;11.12;62.40;101229.78;5045429;28;20438;-64
2023/04/15 09:53:22;;;;;;;5.85;4.30;;;;;;;11.10;61.31;101224.63;5043910;28;20774;-64
2023/04/15 09:55:51;;;;;;;7.10;4.72;;;;;;;11.17;62.97;101227.50;5044208;28;20090;-64
2023/04/15 09:58:25;;;;;;;7.88;4.97;;;;;;;11.28;62.62;101231.69;5043597;28;20032;-64
2023/04/15 10:00:52;;;;;;;6.45;4.80;;;;;;;11.33;61.82;101225.91;5045067;28;20514;-64
2023/04/15 10:03:26;;;;;;;9.65;5.20;;;;;;;11.39;60.34;101223.47;5044083;28;20127;-64
2023/04/15 10:05:54;;;;;;;7.45;4.82;;;;;;;11.34;60.14;101233.72;5044386;28;20033;-64
2023/04/15 10:08:26;;;;;;;7.25;4.80;;;;;;;11.12;62.16;101241.25;5042211;28;22082;-64
2023/04/15 10:10:53;;;;;;;7.97;4.87;;;;;;;11.15;61.80;101245.41;5043153;28;20035;-64
2023/04/15 10:13:24;;;;;;;7.38;5.00;;;;;;;11.27;64.09;101243.31;5042875;28;20047;-64
2023/04/15 10:16:04;;;;;;;8.15;5.00;;;;;;;11.21;61.74;101242.13;5045052;28;20051;-64
2023/04/15 10:18:33;;;;;;;7.50;5.07;;;;;;;11.44;64.69;101239.78;5037060;28;20032;-64
2023/04/15 10:21:00;;;;;;;6.88;4.80;;;;;;;11.54;60.01;101244.97;5035254;28;20052;-64
2023/04/15 10:23:26;;;;;;;8.82;5.28;;;;;;;11.59;61.23;101244.47;5043583;28;20024;-64
2023/04/15 10:25:55;;;;;;;7.05;5.10;;;;;;;11.67;62.42;101249.00;5044314;28;20040;-64
2023/04/15 10:28:21;;;;;;;6.32;4.93;;;;;;;11.70;59.85;101254.84;5044702;28;20043;-64
2023/04/15 10:30:48;;;;;;;6.75;4.80;;;;;;;11.77;60.95;101264.81;5044009;28;20037;-64
2023/04/15 10:33:16;;;;;;;6.90;4.00;;;;;;;11.82;60.01;101262.53;5044603;28;20408;-64
2023/04/15 10:35:42;;;;;;;6.90;4.65;;;;;;;11.70;58.27;101262.81;5035841;28;20121;-64
2023/04/15 10:38:30;;;;;;;6.22;3.72;;;;;;;11.91;59.53;101260.75;5041966;28;20055;-64
2023/04/15 10:41:23;;;;;;;6.30;4.07;;;;;;;12.05;61.89;101262.00;5044641;28;20052;-64
2023/04/15 10:43:51;;;;;;;7.65;4.10;;;;;;;12.13;57.80;101263.84;5032307;28;20040;-64
2023/04/15 10:46:39;;;;;;;5.30;4.57;;;;;;;12.21;58.76;101267.38;5042759;28;20049;-64
2023/04/15 10:49:10;;;;;;;5.75;4.43;;;;;;;12.31;59.28;101261.91;5043324;28;20041;-64
2023/04/15 10:51:40;;;;;;;6.72;4.05;;;;;;;12.26;57.46;101268.69;5032484;28;20047;-64
2023/04/15 10:54:12;;;;;;;8.00;4.32;;;;;;;12.37;59.90;101271.91;5040517;28;20036;-64
2023/04/15 10:56:37;;;;;;;5.47;4.43;;;;;;;12.41;57.09;101269.75;5042823;28;20119;-64
2023/04/15 10:59:04;;;;;;;6.05;4.50;;;;;;;12.57;59.49;101270.75;5046844;28;20106;-64
2023/04/15 11:01:56;;;;;;;7.20;4.00;;;;;;;12.76;55.97;101275.78;5047960;28;20033;-65
2023/04/15 11:04:58;;;;;;;5.38;4.00;;;;;;;12.31;55.62;101287.66;5041003;28;20047;-64
2023/04/15 11:07:43;;;;;;;4.87;3.77;;;;;;;12.14;56.49;101281.47;5041747;28;20021;-64
2023/04/15 11:10:24;;;;;;;6.32;4.50;;;;;;;12.27;54.87;101291.63;5047246;28;20033;-64
2023/04/15 11:12:51;;;;;;;8.38;3.60;;;;;;;12.21;55.02;101287.81;5044988;28;20078;-64
2023/04/15 11:15:32;;;;;;;5.10;3.97;;;;;;;12.34;54.60;101287.34;5047614;28;20027;-64
2023/04/15 11:18:07;;;;;;;6.93;4.00;;;;;;;12.14;55.23;101282.28;5048307;28;20040;-64
2023/04/15 11:20:33;;;;;;;5.25;3.75;;;;;;;12.30;56.65;101283.34;5040631;28;20048;-64